sensor_id;sensor_type;location;lat;lon;timestamp;temperature;humidity
24772;DHT22;12870;52.274;9.754;2023-03-23T00:00:00;14.00;99.90
24772;DHT22;12870;52.274;9.754;2023-03-23T00:02:28;13.90;99.90
24772;DHT22;12870;52.274;9.754;2023-03-23T00:04:54;13.90;99.90
24772;DHT22;12870;52.274;9.754;2023-03-23T00:07:22;13.80;99.90
24772;DHT22;12870;52.274;9.754;2023-03-23T00:09:50;13.80;99.90
24772;DHT22;12870;52.274;9.754;2023-03-23T00:12:30;13.70;99.90
24772;DHT22;12870;52.274;9.754;2023-03-23T00:15:04;13.60;99.90
24772;DHT22;12870;52.274;9.754;2023-03-23T00:17:30;13.50;99.90
24772;DHT22;12870;52.274;9.754;2023-03-23T00:19:59;13.40;99.90
24772;DHT22;12870;52.274;9.754;2023-03-23T00:22:27;13.30;99.90
24772;DHT22;12870;52.274;9.754;2023-03-23T00:24:54;13.20;99.90
24772;DHT22;12870;52.274;9.754;2023-03-23T00:27:22;13.20;99.90
24772;DHT22;12870;52.274;9.754;2023-03-23T00:29:51;13.20;99.90
24772;DHT22;12870;52.274;9.754;2023-03-23T00:32:21;13.20;99.90
24772;DHT22;12870;52.274;9.754;2023-03-23T00:34:54;13.20;99.90
24772;DHT22;12870;52.274;9.754;2023-03-23T00:37:20;13.20;99.90
24772;DHT22;12870;52.274;9.754;2023-03-23T00:39:46;13.10;99.90
24772;DHT22;12870;52.274;9.754;2023-03-23T00:42:14;13.10;99.90
24772;DHT22;12870;52.274;9.754;2023-03-23T00:44:40;13.10;99.90
24772;DHT22;12870;52.274;9.754;2023-03-23T00:47:06;13.00;99.90
24772;DHT22;12870;52.274;9.754;2023-03-23T00:49:34;13.00;99.90
24772;DHT22;12870;52.274;9.754;2023-03-23T00:52:01;13.00;99.90
24772;DHT22;12870;52.274;9.754;2023-03-23T00:54:27;13.00;99.90
24772;DHT22;12870;52.274;9.754;2023-03-23T00:56:53;13.00;99.90
24772;DHT22;12870;52.274;9.754;2023-03-23T00:59:20;12.90;99.90
24772;DHT22;12870;52.274;9.754;2023-03-23T01:01:46;12.90;99.90
24772;DHT22;12870;52.274;9.754;2023-03-23T01:04:12;12.80;99.90
24772;DHT22;12870;52.274;9.754;2023-03-23T01:06:41;12.70;99.90
24772;DHT22;12870;52.274;9.754;2023-03-23T01:09:10;12.70;99.90
24772;DHT22;12870;52.274;9.754;2023-03-23T01:11:36;12.70;99.90
24772;DHT22;12870;52.274;9.754;2023-03-23T01:14:03;12.60;99.90
24772;DHT22;12870;52.274;9.754;2023-03-23T01:16:29;12.60;99.90
24772;DHT22;12870;52.274;9.754;2023-03-23T01:18:55;12.70;99.90
24772;DHT22;12870;52.274;9.754;2023-03-23T01:21:21;12.70;99.90
24772;DHT22;12870;52.274;9.754;2023-03-23T01:23:47;12.70;99.90
24772;DHT22;12870;52.274;9.754;2023-03-23T01:26:19;12.70;99.90
24772;DHT22;12870;52.274;9.754;2023-03-23T01:28:45;12.70;99.90
24772;DHT22;12870;52.274;9.754;2023-03-23T01:31:13;12.70;99.90
24772;DHT22;12870;52.274;9.754;2023-03-23T01:33:40;12.70;99.90
24772;DHT22;12870;52.274;9.754;2023-03-23T01:36:27;12.70;99.90
24772;DHT22;12870;52.274;9.754;2023-03-23T01:38:54;12.60;99.90
24772;DHT22;12870;52.274;9.754;2023-03-23T01:41:21;12.60;99.90
24772;DHT22;12870;52.274;9.754;2023-03-23T01:46:42;12.60;99.90
24772;DHT22;12870;52.274;9.754;2023-03-23T01:49:13;12.60;99.90
24772;DHT22;12870;52.274;9.754;2023-03-23T01:51:43;12.70;99.90
24772;DHT22;12870;52.274;9.754;2023-03-23T01:54:13;12.70;99.90
24772;DHT22;12870;52.274;9.754;2023-03-23T01:56:49;12.70;99.90
24772;DHT22;12870;52.274;9.754;2023-03-23T01:59:16;12.60;99.90
24772;DHT22;12870;52.274;9.754;2023-03-23T02:01:42;12.70;99.90
24772;DHT22;12870;52.274;9.754;2023-03-23T02:04:13;12.80;99.90
24772;DHT22;12870;52.274;9.754;2023-03-23T02:06:40;12.70;99.90
24772;DHT22;12870;52.274;9.754;2023-03-23T02:09:06;12.70;99.90
24772;DHT22;12870;52.274;9.754;2023-03-23T02:11:32;12.70;99.90
24772;DHT22;12870;52.274;9.754;2023-03-23T02:13:58;12.60;99.90
24772;DHT22;12870;52.274;9.754;2023-03-23T02:16:55;12.50;99.90
24772;DHT22;12870;52.274;9.754;2023-03-23T02:30:24;12.60;99.90
24772;DHT22;12870;52.274;9.754;2023-03-23T02:36:00;12.70;99.90
24772;DHT22;12870;52.274;9.754;2023-03-23T02:41:08;12.70;99.90
24772;DHT22;12870;52.274;9.754;2023-03-23T02:43:40;12.60;99.90
24772;DHT22;12870;52.274;9.754;2023-03-23T02:46:08;12.70;99.90
24772;DHT22;12870;52.274;9.754;2023-03-23T02:48:36;12.70;99.90
24772;DHT22;12870;52.274;9.754;2023-03-23T02:51:04;12.70;99.90
24772;DHT22;12870;52.274;9.754;2023-03-23T02:53:34;12.60;99.90
24772;DHT22;12870;52.274;9.754;2023-03-23T02:56:03;12.60;99.90
24772;DHT22;12870;52.274;9.754;2023-03-23T02:58:30;12.60;99.90
24772;DHT22;12870;52.274;9.754;2023-03-23T03:00:56;12.60;99.90
24772;DHT22;12870;52.274;9.754;2023-03-23T03:03:27;12.60;99.90
24772;DHT22;12870;52.274;9.754;2023-03-23T03:06:19;12.70;99.90
24772;DHT22;12870;52.274;9.754;2023-03-23T03:11:29;12.60;99.90
24772;DHT22;12870;52.274;9.754;2023-03-23T03:14:13;12.60;99.90
24772;DHT22;12870;52.274;9.754;2023-03-23T03:17:00;12.60;99.90
24772;DHT22;12870;52.274;9.754;2023-03-23T03:19:28;12.50;99.90
24772;DHT22;12870;52.274;9.754;2023-03-23T03:21:55;12.60;99.90
24772;DHT22;12870;52.274;9.754;2023-03-23T03:24:24;12.60;99.90
24772;DHT22;12870;52.274;9.754;2023-03-23T03:26:53;12.50;99.90
24772;DHT22;12870;52.274;9.754;2023-03-23T03:29:29;12.50;99.90
24772;DHT22;12870;52.274;9.754;2023-03-23T03:31:56;12.40;99.90
24772;DHT22;12870;52.274;9.754;2023-03-23T03:34:24;12.30;99.90
24772;DHT22;12870;52.274;9.754;2023-03-23T03:36:51;12.30;99.90
24772;DHT22;12870;52.274;9.754;2023-03-23T03:39:19;12.30;99.90
24772;DHT22;12870;52.274;9.754;2023-03-23T03:41:47;12.30;99.90
24772;DHT22;12870;52.274;9.754;2023-03-23T03:44:13;12.20;99.90
24772;DHT22;12870;52.274;9.754;2023-03-23T03:46:40;12.20;99.90
24772;DHT22;12870;52.274;9.754;2023-03-23T03:49:07;12.10;99.90
24772;DHT22;12870;52.274;9.754;2023-03-23T03:51:34;12.10;99.90
24772;DHT22;12870;52.274;9.754;2023-03-23T03:54:01;12.00;99.90
24772;DHT22;12870;52.274;9.754;2023-03-23T03:56:26;12.00;99.90
24772;DHT22;12870;52.274;9.754;2023-03-23T03:58:53;12.10;99.90
24772;DHT22;12870;52.274;9.754;2023-03-23T04:01:21;12.10;99.90
24772;DHT22;12870;52.274;9.754;2023-03-23T04:03:48;12.10;99.90
24772;DHT22;12870;52.274;9.754;2023-03-23T04:06:14;12.10;99.90
24772;DHT22;12870;52.274;9.754;2023-03-23T04:08:41;12.20;99.90
24772;DHT22;12870;52.274;9.754;2023-03-23T04:11:08;12.20;99.90
24772;DHT22;12870;52.274;9.754;2023-03-23T04:13:34;12.10;99.90
24772;DHT22;12870;52.274;9.754;2023-03-23T04:16:00;12.20;99.90
24772;DHT22;12870;52.274;9.754;2023-03-23T04:18:26;12.10;99.90
24772;DHT22;12870;52.274;9.754;2023-03-23T04:20:51;12.10;99.90
24772;DHT22;12870;52.274;9.754;2023-03-23T04:23:19;12.10;99.90
24772;DHT22;12870;52.274;9.754;2023-03-23T04:25:50;12.10;99.90
24772;DHT22;12870;52.274;9.754;2023-03-23T04:28:18;12.20;99.90
24772;DHT22;12870;52.274;9.754;2023-03-23T04:30:46;12.10;99.90
24772;DHT22;12870;52.274;9.754;2023-03-23T04:33:14;12.10;99.90
24772;DHT22;12870;52.274;9.754;2023-03-23T04:35:42;12.10;99.90
24772;DHT22;12870;52.274;9.754;2023-03-23T04:38:12;12.10;99.90
24772;DHT22;12870;52.274;9.754;2023-03-23T04:40:42;12.10;99.90
24772;DHT22;12870;52.274;9.754;2023-03-23T04:43:09;12.10;99.90
24772;DHT22;12870;52.274;9.754;2023-03-23T04:45:38;12.10;99.90
24772;DHT22;12870;52.274;9.754;2023-03-23T04:48:07;12.10;99.90
24772;DHT22;12870;52.274;9.754;2023-03-23T04:50:34;12.10;99.90
24772;DHT22;12870;52.274;9.754;2023-03-23T04:53:01;12.20;99.90
24772;DHT22;12870;52.274;9.754;2023-03-23T04:55:34;12.10;99.90
24772;DHT22;12870;52.274;9.754;2023-03-23T04:58:06;12.10;99.90
24772;DHT22;12870;52.274;9.754;2023-03-23T05:00:34;12.10;99.90
24772;DHT22;12870;52.274;9.754;2023-03-23T05:02:59;12.10;99.90
24772;DHT22;12870;52.274;9.754;2023-03-23T05:05:26;12.10;99.90
24772;DHT22;12870;52.274;9.754;2023-03-23T05:07:54;12.10;99.90
24772;DHT22;12870;52.274;9.754;2023-03-23T05:10:20;12.20;99.90
24772;DHT22;12870;52.274;9.754;2023-03-23T05:12:46;12.20;99.90
24772;DHT22;12870;52.274;9.754;2023-03-23T05:15:13;12.20;99.90
24772;DHT22;12870;52.274;9.754;2023-03-23T05:17:40;12.20;99.90
24772;DHT22;12870;52.274;9.754;2023-03-23T05:20:15;12.30;99.90
24772;DHT22;12870;52.274;9.754;2023-03-23T05:22:44;12.30;99.90
24772;DHT22;12870;52.274;9.754;2023-03-23T05:25:10;12.30;99.90
24772;DHT22;12870;52.274;9.754;2023-03-23T05:27:39;12.30;99.90
24772;DHT22;12870;52.274;9.754;2023-03-23T05:30:09;12.30;99.90
24772;DHT22;12870;52.274;9.754;2023-03-23T05:32:35;12.30;99.90
24772;DHT22;12870;52.274;9.754;2023-03-23T05:35:03;12.40;99.90
24772;DHT22;12870;52.274;9.754;2023-03-23T05:37:29;12.30;99.90
24772;DHT22;12870;52.274;9.754;2023-03-23T05:39:58;12.30;99.90
24772;DHT22;12870;52.274;9.754;2023-03-23T05:42:27;12.40;99.90
24772;DHT22;12870;52.274;9.754;2023-03-23T05:44:52;12.40;99.90
24772;DHT22;12870;52.274;9.754;2023-03-23T05:47:18;12.40;99.90
24772;DHT22;12870;52.274;9.754;2023-03-23T05:49:44;12.40;99.90
24772;DHT22;12870;52.274;9.754;2023-03-23T05:52:10;12.30;99.90
24772;DHT22;12870;52.274;9.754;2023-03-23T05:54:36;12.40;99.90
24772;DHT22;12870;52.274;9.754;2023-03-23T05:57:03;12.40;99.90
24772;DHT22;12870;52.274;9.754;2023-03-23T05:59:28;12.40;99.90
24772;DHT22;12870;52.274;9.754;2023-03-23T06:01:54;12.40;99.90
24772;DHT22;12870;52.274;9.754;2023-03-23T06:04:21;12.40;99.90
24772;DHT22;12870;52.274;9.754;2023-03-23T06:06:50;12.40;99.90
24772;DHT22;12870;52.274;9.754;2023-03-23T06:09:17;12.50;99.90
24772;DHT22;12870;52.274;9.754;2023-03-23T06:11:43;12.50;99.90
24772;DHT22;12870;52.274;9.754;2023-03-23T06:14:09;12.60;99.90
24772;DHT22;12870;52.274;9.754;2023-03-23T06:16:35;12.50;99.90
24772;DHT22;12870;52.274;9.754;2023-03-23T06:19:01;12.60;99.90
24772;DHT22;12870;52.274;9.754;2023-03-23T06:21:32;12.60;99.90
24772;DHT22;12870;52.274;9.754;2023-03-23T06:23:58;12.60;99.90
24772;DHT22;12870;52.274;9.754;2023-03-23T06:26:31;12.60;99.90
24772;DHT22;12870;52.274;9.754;2023-03-23T06:28:57;12.60;99.90
24772;DHT22;12870;52.274;9.754;2023-03-23T06:31:24;12.60;99.90
24772;DHT22;12870;52.274;9.754;2023-03-23T06:33:50;12.70;99.90
24772;DHT22;12870;52.274;9.754;2023-03-23T06:36:16;12.70;99.90
24772;DHT22;12870;52.274;9.754;2023-03-23T06:38:43;12.80;99.90
24772;DHT22;12870;52.274;9.754;2023-03-23T06:41:08;12.80;99.90
24772;DHT22;12870;52.274;9.754;2023-03-23T06:43:34;12.80;99.90
24772;DHT22;12870;52.274;9.754;2023-03-23T06:46:03;12.90;99.90
24772;DHT22;12870;52.274;9.754;2023-03-23T06:48:29;12.90;99.90
24772;DHT22;12870;52.274;9.754;2023-03-23T06:50:55;13.00;99.90
24772;DHT22;12870;52.274;9.754;2023-03-23T06:53:21;13.00;99.90
24772;DHT22;12870;52.274;9.754;2023-03-23T06:55:46;13.00;99.90
24772;DHT22;12870;52.274;9.754;2023-03-23T06:58:12;13.00;99.90
24772;DHT22;12870;52.274;9.754;2023-03-23T07:00:39;13.00;99.90
24772;DHT22;12870;52.274;9.754;2023-03-23T07:03:06;13.00;99.90
24772;DHT22;12870;52.274;9.754;2023-03-23T07:05:35;13.00;99.90
24772;DHT22;12870;52.274;9.754;2023-03-23T07:08:02;13.00;99.90
24772;DHT22;12870;52.274;9.754;2023-03-23T07:10:28;13.00;99.90
24772;DHT22;12870;52.274;9.754;2023-03-23T07:12:54;13.00;99.90
24772;DHT22;12870;52.274;9.754;2023-03-23T07:15:20;13.00;99.90
24772;DHT22;12870;52.274;9.754;2023-03-23T07:17:47;13.10;99.90
24772;DHT22;12870;52.274;9.754;2023-03-23T07:20:13;13.10;99.90
24772;DHT22;12870;52.274;9.754;2023-03-23T07:22:40;13.20;99.90
24772;DHT22;12870;52.274;9.754;2023-03-23T07:25:06;13.20;99.90
24772;DHT22;12870;52.274;9.754;2023-03-23T07:27:33;13.20;99.90
24772;DHT22;12870;52.274;9.754;2023-03-23T07:29:59;13.30;99.90
24772;DHT22;12870;52.274;9.754;2023-03-23T07:32:25;13.40;99.90
24772;DHT22;12870;52.274;9.754;2023-03-23T07:34:51;13.40;99.90
24772;DHT22;12870;52.274;9.754;2023-03-23T07:37:17;13.40;99.90
24772;DHT22;12870;52.274;9.754;2023-03-23T07:39:43;13.30;99.90
24772;DHT22;12870;52.274;9.754;2023-03-23T07:42:09;13.30;99.90
24772;DHT22;12870;52.274;9.754;2023-03-23T07:44:35;13.40;99.90
24772;DHT22;12870;52.274;9.754;2023-03-23T07:47:02;13.40;99.90
24772;DHT22;12870;52.274;9.754;2023-03-23T07:49:28;13.50;99.90
24772;DHT22;12870;52.274;9.754;2023-03-23T07:51:56;13.50;99.90
24772;DHT22;12870;52.274;9.754;2023-03-23T07:54:21;13.60;99.90
24772;DHT22;12870;52.274;9.754;2023-03-23T07:56:47;13.60;99.90
24772;DHT22;12870;52.274;9.754;2023-03-23T07:59:13;13.70;99.90
24772;DHT22;12870;52.274;9.754;2023-03-23T08:01:39;13.70;99.90
24772;DHT22;12870;52.274;9.754;2023-03-23T08:04:05;13.70;99.90
24772;DHT22;12870;52.274;9.754;2023-03-23T08:06:32;13.80;99.90
24772;DHT22;12870;52.274;9.754;2023-03-23T08:09:00;13.80;99.90
24772;DHT22;12870;52.274;9.754;2023-03-23T08:11:26;13.80;99.90
24772;DHT22;12870;52.274;9.754;2023-03-23T08:13:51;13.90;99.90
24772;DHT22;12870;52.274;9.754;2023-03-23T08:16:17;13.90;99.90
24772;DHT22;12870;52.274;9.754;2023-03-23T08:18:44;13.90;99.90
24772;DHT22;12870;52.274;9.754;2023-03-23T08:21:10;13.90;99.90
24772;DHT22;12870;52.274;9.754;2023-03-23T08:23:37;14.00;99.90
24772;DHT22;12870;52.274;9.754;2023-03-23T08:26:04;14.10;99.90
24772;DHT22;12870;52.274;9.754;2023-03-23T08:28:32;14.00;99.90
24772;DHT22;12870;52.274;9.754;2023-03-23T08:30:58;13.90;99.90
24772;DHT22;12870;52.274;9.754;2023-03-23T08:33:24;14.00;99.90
24772;DHT22;12870;52.274;9.754;2023-03-23T08:35:57;14.00;99.90
24772;DHT22;12870;52.274;9.754;2023-03-23T08:38:24;14.10;99.90
24772;DHT22;12870;52.274;9.754;2023-03-23T08:40:50;14.10;99.90
24772;DHT22;12870;52.274;9.754;2023-03-23T08:43:17;14.00;99.90
24772;DHT22;12870;52.274;9.754;2023-03-23T08:45:43;14.10;99.90
24772;DHT22;12870;52.274;9.754;2023-03-23T08:48:08;14.10;99.90
24772;DHT22;12870;52.274;9.754;2023-03-23T08:50:34;14.10;99.90
24772;DHT22;12870;52.274;9.754;2023-03-23T08:53:01;14.10;99.90
24772;DHT22;12870;52.274;9.754;2023-03-23T08:55:26;14.30;99.90
24772;DHT22;12870;52.274;9.754;2023-03-23T08:57:54;14.20;99.90
24772;DHT22;12870;52.274;9.754;2023-03-23T09:00:22;14.30;99.90
24772;DHT22;12870;52.274;9.754;2023-03-23T09:02:51;14.20;99.90
24772;DHT22;12870;52.274;9.754;2023-03-23T09:05:20;14.20;99.90
24772;DHT22;12870;52.274;9.754;2023-03-23T09:07:51;14.10;99.90
24772;DHT22;12870;52.274;9.754;2023-03-23T09:10:17;14.20;99.90
24772;DHT22;12870;52.274;9.754;2023-03-23T09:12:44;14.30;99.90
24772;DHT22;12870;52.274;9.754;2023-03-23T09:15:13;14.40;99.90
24772;DHT22;12870;52.274;9.754;2023-03-23T09:17:43;14.40;99.90
24772;DHT22;12870;52.274;9.754;2023-03-23T09:20:12;14.30;99.90
24772;DHT22;12870;52.274;9.754;2023-03-23T09:22:39;14.30;99.90
24772;DHT22;12870;52.274;9.754;2023-03-23T09:25:06;14.40;99.90
24772;DHT22;12870;52.274;9.754;2023-03-23T09:27:32;14.40;99.90
24772;DHT22;12870;52.274;9.754;2023-03-23T09:29:58;14.40;99.90
24772;DHT22;12870;52.274;9.754;2023-03-23T09:32:26;14.30;99.90
24772;DHT22;12870;52.274;9.754;2023-03-23T09:34:52;14.40;99.90
24772;DHT22;12870;52.274;9.754;2023-03-23T09:37:20;14.50;99.90
24772;DHT22;12870;52.274;9.754;2023-03-23T09:39:46;14.50;99.90
24772;DHT22;12870;52.274;9.754;2023-03-23T09:42:22;14.50;99.90
24772;DHT22;12870;52.274;9.754;2023-03-23T09:50:17;14.60;99.90
24772;DHT22;12870;52.274;9.754;2023-03-23T09:52:52;14.50;99.90
24772;DHT22;12870;52.274;9.754;2023-03-23T09:55:20;14.50;99.90
24772;DHT22;12870;52.274;9.754;2023-03-23T10:00:29;14.60;99.90
24772;DHT22;12870;52.274;9.754;2023-03-23T10:05:48;14.70;99.90
24772;DHT22;12870;52.274;9.754;2023-03-23T10:08:20;14.80;99.90
24772;DHT22;12870;52.274;9.754;2023-03-23T10:16:25;14.60;99.90
24772;DHT22;12870;52.274;9.754;2023-03-23T10:19:03;14.60;99.90
24772;DHT22;12870;52.274;9.754;2023-03-23T10:21:37;14.60;99.90
24772;DHT22;12870;52.274;9.754;2023-03-23T10:24:07;14.50;99.90
24772;DHT22;12870;52.274;9.754;2023-03-23T10:29:28;14.60;99.90
24772;DHT22;12870;52.274;9.754;2023-03-23T10:32:03;14.60;99.90
24772;DHT22;12870;52.274;9.754;2023-03-23T10:34:59;14.60;99.90
24772;DHT22;12870;52.274;9.754;2023-03-23T10:37:28;14.60;99.90
24772;DHT22;12870;52.274;9.754;2023-03-23T10:40:00;14.80;99.90
24772;DHT22;12870;52.274;9.754;2023-03-23T10:42:35;14.80;99.90
24772;DHT22;12870;52.274;9.754;2023-03-23T10:45:22;14.90;99.90
24772;DHT22;12870;52.274;9.754;2023-03-23T10:48:03;14.90;99.90
24772;DHT22;12870;52.274;9.754;2023-03-23T10:50:34;15.00;99.90
24772;DHT22;12870;52.274;9.754;2023-03-23T10:53:00;15.20;99.90
24772;DHT22;12870;52.274;9.754;2023-03-23T10:55:40;15.30;99.90
24772;DHT22;12870;52.274;9.754;2023-03-23T10:58:22;15.70;99.90
24772;DHT22;12870;52.274;9.754;2023-03-23T11:00:49;16.00;99.90
24772;DHT22;12870;52.274;9.754;2023-03-23T11:05:49;16.10;99.90
24772;DHT22;12870;52.274;9.754;2023-03-23T11:08:25;16.10;99.90
24772;DHT22;12870;52.274;9.754;2023-03-23T11:11:38;16.50;99.90
24772;DHT22;12870;52.274;9.754;2023-03-23T11:13:47;16.70;99.90
24772;DHT22;12870;52.274;9.754;2023-03-23T11:16:29;16.80;99.90
24772;DHT22;12870;52.274;9.754;2023-03-23T11:18:55;17.40;99.90
24772;DHT22;12870;52.274;9.754;2023-03-23T11:21:22;17.50;99.90
24772;DHT22;12870;52.274;9.754;2023-03-23T11:23:59;18.00;99.90
24772;DHT22;12870;52.274;9.754;2023-03-23T11:26:30;18.40;99.90
24772;DHT22;12870;52.274;9.754;2023-03-23T11:31:48;18.60;99.90
24772;DHT22;12870;52.274;9.754;2023-03-23T11:34:22;18.20;99.90
24772;DHT22;12870;52.274;9.754;2023-03-23T11:37:54;17.90;99.90
24772;DHT22;12870;52.274;9.754;2023-03-23T11:40:00;17.70;99.90
24772;DHT22;12870;52.274;9.754;2023-03-23T11:45:15;18.90;99.90
24772;DHT22;12870;52.274;9.754;2023-03-23T11:48:01;19.10;99.90
24772;DHT22;12870;52.274;9.754;2023-03-23T11:50:47;18.20;99.90
24772;DHT22;12870;52.274;9.754;2023-03-23T11:56:44;17.20;99.90
24772;DHT22;12870;52.274;9.754;2023-03-23T11:59:17;17.00;99.90
24772;DHT22;12870;52.274;9.754;2023-03-23T12:01:59;16.90;99.90
24772;DHT22;12870;52.274;9.754;2023-03-23T12:10:38;16.60;99.90
24772;DHT22;12870;52.274;9.754;2023-03-23T12:13:29;16.20;99.90
24772;DHT22;12870;52.274;9.754;2023-03-23T12:16:19;15.90;99.90
24772;DHT22;12870;52.274;9.754;2023-03-23T12:29:34;13.60;99.90
24772;DHT22;12870;52.274;9.754;2023-03-23T12:49:14;13.50;99.90
24772;DHT22;12870;52.274;9.754;2023-03-23T12:57:35;13.20;99.90
24772;DHT22;12870;52.274;9.754;2023-03-23T13:00:29;13.30;99.90
24772;DHT22;12870;52.274;9.754;2023-03-23T13:08:40;13.30;99.90
24772;DHT22;12870;52.274;9.754;2023-03-23T13:11:48;13.40;99.90
24772;DHT22;12870;52.274;9.754;2023-03-23T13:28:03;14.40;99.90
24772;DHT22;12870;52.274;9.754;2023-03-23T13:30:29;14.60;99.90
24772;DHT22;12870;52.274;9.754;2023-03-23T13:33:06;14.80;99.90
24772;DHT22;12870;52.274;9.754;2023-03-23T13:35:38;15.40;99.90
24772;DHT22;12870;52.274;9.754;2023-03-23T13:38:33;15.30;99.90
24772;DHT22;12870;52.274;9.754;2023-03-23T13:41:09;15.40;99.90
24772;DHT22;12870;52.274;9.754;2023-03-23T13:43:37;15.50;99.90
24772;DHT22;12870;52.274;9.754;2023-03-23T13:48:49;15.10;99.90
24772;DHT22;12870;52.274;9.754;2023-03-23T13:56:58;13.60;99.90
24772;DHT22;12870;52.274;9.754;2023-03-23T14:01:54;13.10;99.90
24772;DHT22;12870;52.274;9.754;2023-03-23T14:04:21;13.10;99.90
24772;DHT22;12870;52.274;9.754;2023-03-23T14:06:50;13.00;99.90
24772;DHT22;12870;52.274;9.754;2023-03-23T14:09:28;12.80;99.90
24772;DHT22;12870;52.274;9.754;2023-03-23T14:12:00;12.60;99.90
24772;DHT22;12870;52.274;9.754;2023-03-23T14:14:44;12.40;99.90
24772;DHT22;12870;52.274;9.754;2023-03-23T14:17:19;12.30;99.90
24772;DHT22;12870;52.274;9.754;2023-03-23T14:19:49;12.40;99.90
24772;DHT22;12870;52.274;9.754;2023-03-23T14:22:32;12.70;99.90
24772;DHT22;12870;52.274;9.754;2023-03-23T14:25:16;12.70;99.90
24772;DHT22;12870;52.274;9.754;2023-03-23T14:27:42;12.60;99.90
24772;DHT22;12870;52.274;9.754;2023-03-23T14:30:18;12.50;99.90
24772;DHT22;12870;52.274;9.754;2023-03-23T14:32:44;12.60;99.90
24772;DHT22;12870;52.274;9.754;2023-03-23T14:35:27;12.50;99.90
24772;DHT22;12870;52.274;9.754;2023-03-23T14:37:54;12.80;99.90
24772;DHT22;12870;52.274;9.754;2023-03-23T14:40:21;12.90;99.90
24772;DHT22;12870;52.274;9.754;2023-03-23T14:42:47;12.90;99.90
24772;DHT22;12870;52.274;9.754;2023-03-23T14:45:19;13.00;99.90
24772;DHT22;12870;52.274;9.754;2023-03-23T14:47:54;13.10;99.90
24772;DHT22;12870;52.274;9.754;2023-03-23T14:52:51;12.70;99.90
24772;DHT22;12870;52.274;9.754;2023-03-23T14:55:21;12.60;99.90
24772;DHT22;12870;52.274;9.754;2023-03-23T14:57:50;12.70;99.90
24772;DHT22;12870;52.274;9.754;2023-03-23T15:00:24;12.60;99.90
24772;DHT22;12870;52.274;9.754;2023-03-23T15:02:55;12.60;99.90
24772;DHT22;12870;52.274;9.754;2023-03-23T15:05:33;12.60;99.90
24772;DHT22;12870;52.274;9.754;2023-03-23T15:08:05;12.80;99.90
24772;DHT22;12870;52.274;9.754;2023-03-23T15:10:32;12.90;99.90
24772;DHT22;12870;52.274;9.754;2023-03-23T15:12:58;13.00;99.90
24772;DHT22;12870;52.274;9.754;2023-03-23T15:15:33;12.90;99.90
24772;DHT22;12870;52.274;9.754;2023-03-23T15:18:00;13.00;99.90
24772;DHT22;12870;52.274;9.754;2023-03-23T15:20:43;13.10;99.90
24772;DHT22;12870;52.274;9.754;2023-03-23T15:23:15;13.20;99.90
24772;DHT22;12870;52.274;9.754;2023-03-23T15:25:48;13.50;99.90
24772;DHT22;12870;52.274;9.754;2023-03-23T15:28:31;13.80;99.90
24772;DHT22;12870;52.274;9.754;2023-03-23T15:31:01;13.80;99.90
24772;DHT22;12870;52.274;9.754;2023-03-23T15:33:37;13.80;99.90
24772;DHT22;12870;52.274;9.754;2023-03-23T15:36:08;14.00;99.90
24772;DHT22;12870;52.274;9.754;2023-03-23T15:38:35;14.00;99.90
24772;DHT22;12870;52.274;9.754;2023-03-23T15:41:04;13.80;99.90
24772;DHT22;12870;52.274;9.754;2023-03-23T15:43:33;13.70;99.90
24772;DHT22;12870;52.274;9.754;2023-03-23T15:46:02;13.70;99.90
24772;DHT22;12870;52.274;9.754;2023-03-23T15:48:48;13.90;99.90
24772;DHT22;12870;52.274;9.754;2023-03-23T15:51:15;14.20;99.90
24772;DHT22;12870;52.274;9.754;2023-03-23T15:53:42;14.40;99.90
24772;DHT22;12870;52.274;9.754;2023-03-23T15:56:10;14.90;99.90
24772;DHT22;12870;52.274;9.754;2023-03-23T15:58:37;15.60;99.90
24772;DHT22;12870;52.274;9.754;2023-03-23T16:01:25;16.10;99.90
24772;DHT22;12870;52.274;9.754;2023-03-23T16:03:53;16.70;99.90
24772;DHT22;12870;52.274;9.754;2023-03-23T16:06:22;17.30;99.90
24772;DHT22;12870;52.274;9.754;2023-03-23T16:08:49;17.70;99.90
24772;DHT22;12870;52.274;9.754;2023-03-23T16:11:16;17.70;99.90
24772;DHT22;12870;52.274;9.754;2023-03-23T16:13:43;17.30;99.90
24772;DHT22;12870;52.274;9.754;2023-03-23T16:18:57;16.90;99.90
24772;DHT22;12870;52.274;9.754;2023-03-23T16:21:23;16.70;99.90
24772;DHT22;12870;52.274;9.754;2023-03-23T16:23:49;16.10;99.90
24772;DHT22;12870;52.274;9.754;2023-03-23T16:26:15;15.90;99.90
24772;DHT22;12870;52.274;9.754;2023-03-23T16:28:41;15.70;99.90
24772;DHT22;12870;52.274;9.754;2023-03-23T16:31:07;16.10;99.90
24772;DHT22;12870;52.274;9.754;2023-03-23T16:33:33;16.20;99.90
24772;DHT22;12870;52.274;9.754;2023-03-23T16:35:58;16.00;99.90
24772;DHT22;12870;52.274;9.754;2023-03-23T16:38:24;16.10;99.90
24772;DHT22;12870;52.274;9.754;2023-03-23T16:40:50;16.20;99.90
24772;DHT22;12870;52.274;9.754;2023-03-23T16:43:16;16.10;99.90
24772;DHT22;12870;52.274;9.754;2023-03-23T16:45:43;15.60;99.90
24772;DHT22;12870;52.274;9.754;2023-03-23T16:48:11;15.20;99.90
24772;DHT22;12870;52.274;9.754;2023-03-23T16:50:38;14.70;99.90
24772;DHT22;12870;52.274;9.754;2023-03-23T16:53:05;14.50;99.90
24772;DHT22;12870;52.274;9.754;2023-03-23T16:55:33;14.30;99.90
24772;DHT22;12870;52.274;9.754;2023-03-23T16:57:59;14.30;99.90
24772;DHT22;12870;52.274;9.754;2023-03-23T17:00:25;14.20;99.90
24772;DHT22;12870;52.274;9.754;2023-03-23T17:02:53;14.00;99.90
24772;DHT22;12870;52.274;9.754;2023-03-23T17:05:22;13.90;99.90
24772;DHT22;12870;52.274;9.754;2023-03-23T17:07:49;13.80;99.90
24772;DHT22;12870;52.274;9.754;2023-03-23T17:10:16;13.70;99.90
24772;DHT22;12870;52.274;9.754;2023-03-23T17:12:42;13.60;99.90
24772;DHT22;12870;52.274;9.754;2023-03-23T17:15:09;13.60;99.90
24772;DHT22;12870;52.274;9.754;2023-03-23T17:17:35;13.60;99.90
24772;DHT22;12870;52.274;9.754;2023-03-23T17:20:02;13.60;99.90
24772;DHT22;12870;52.274;9.754;2023-03-23T17:22:28;13.50;99.90
24772;DHT22;12870;52.274;9.754;2023-03-23T17:24:53;13.60;99.90
24772;DHT22;12870;52.274;9.754;2023-03-23T17:27:20;13.50;99.90
24772;DHT22;12870;52.274;9.754;2023-03-23T17:29:46;13.50;99.90
24772;DHT22;12870;52.274;9.754;2023-03-23T17:32:13;13.50;99.90
24772;DHT22;12870;52.274;9.754;2023-03-23T17:34:39;13.50;99.90
24772;DHT22;12870;52.274;9.754;2023-03-23T17:37:05;13.50;99.90
24772;DHT22;12870;52.274;9.754;2023-03-23T17:39:30;13.50;99.90
24772;DHT22;12870;52.274;9.754;2023-03-23T17:41:57;13.50;99.90
24772;DHT22;12870;52.274;9.754;2023-03-23T17:44:24;13.50;99.90
24772;DHT22;12870;52.274;9.754;2023-03-23T17:46:50;13.50;99.90
24772;DHT22;12870;52.274;9.754;2023-03-23T17:49:16;13.50;99.90
24772;DHT22;12870;52.274;9.754;2023-03-23T17:51:42;13.50;99.90